If you wish to contribute or participate in the discussions about articles you are invited to join SKYbrary as a registered user

 Actions

Chicago Midway International Airport

From SKYbrary Wiki

KMDW /
Revision as of 19:06, 26 May 2010 by Timo.Kouwenhoven (talk | contribs) (Created page with '{{Airport |Airport_Name=Chicago Midway International Airport |ICAO_Region=NAM |ICAO_Territory=K |Location=Chicago, IL, USA |Coordinates=41.785833° N, 87.752222° W }}')
(diff) ← Older revision | Latest revision (diff) | Newer revision → (diff)
Airport
ICAO: KMDW
Summary
Name Chicago Midway International Airport
Region North America
Territory United States US.gif
Location Chicago, IL, USA
Serving
Coordinates 41° 47' 9.00" N, 87° 45' 8.00" W
Runways
Designator Length Width Surface ROPS
04L/22R 1679 m5,508.53 ft
46 m150.919 ft
ASP yes/yes
04R/22L 1965 m6,446.85 ft
46 m150.919 ft
PEM yes/yes
13C/31C 1988 m6,522.31 ft
46 m150.919 ft
CON yes/yes
13L/31R 1567 m5,141.076 ft
46 m150.919 ft
ASP yes/yes
13R/31L 1176 m3,858.268 ft
18 m59.055 ft
CON yes/yes


METAR
Observation KMDW 272312Z 22003KT 10SM FEW022 OVC100 03/M01 A3018 RMK AO2 T00281006 $
Station Chicago, Chicago Midway Airport
Date/Time 27 October 2020 23:12:00
Wind direction 220°
Wind speed 03 kts
Lowest cloud amount few clouds
Temperature 2.8°C
Dew point
Humidity 78%
QNH hPa
Weather condition n/a